sensor_id;sensor_type;location;lat;lon;timestamp;temperature;humidity
17423;DHT22;8829;47.932;7.810;2023-02-26T00:00:22;1.60;99.90
17423;DHT22;8829;47.932;7.810;2023-02-26T00:02:49;1.50;99.90
17423;DHT22;8829;47.932;7.810;2023-02-26T00:05:16;1.40;99.90
17423;DHT22;8829;47.932;7.810;2023-02-26T00:07:43;1.30;99.90
17423;DHT22;8829;47.932;7.810;2023-02-26T00:10:12;1.20;99.90
17423;DHT22;8829;47.932;7.810;2023-02-26T00:12:39;1.20;99.90
17423;DHT22;8829;47.932;7.810;2023-02-26T00:15:10;1.20;99.90
17423;DHT22;8829;47.932;7.810;2023-02-26T00:17:44;1.10;99.90
17423;DHT22;8829;47.932;7.810;2023-02-26T00:20:14;1.10;99.90
17423;DHT22;8829;47.932;7.810;2023-02-26T00:22:42;1.20;99.90
17423;DHT22;8829;47.932;7.810;2023-02-26T00:25:10;1.20;99.90
17423;DHT22;8829;47.932;7.810;2023-02-26T00:27:37;1.30;99.90
17423;DHT22;8829;47.932;7.810;2023-02-26T00:30:05;1.20;99.90
17423;DHT22;8829;47.932;7.810;2023-02-26T00:32:34;1.20;99.90
17423;DHT22;8829;47.932;7.810;2023-02-26T00:35:02;1.10;99.90
17423;DHT22;8829;47.932;7.810;2023-02-26T00:37:43;1.00;99.90
17423;DHT22;8829;47.932;7.810;2023-02-26T00:40:19;1.00;99.90
17423;DHT22;8829;47.932;7.810;2023-02-26T00:42:48;0.90;99.90
17423;DHT22;8829;47.932;7.810;2023-02-26T00:45:15;1.00;99.90
17423;DHT22;8829;47.932;7.810;2023-02-26T00:47:49;0.90;99.90
17423;DHT22;8829;47.932;7.810;2023-02-26T00:50:20;0.90;99.90
17423;DHT22;8829;47.932;7.810;2023-02-26T00:52:56;0.80;99.90
17423;DHT22;8829;47.932;7.810;2023-02-26T00:55:28;0.90;99.90
17423;DHT22;8829;47.932;7.810;2023-02-26T00:57:54;0.80;99.90
17423;DHT22;8829;47.932;7.810;2023-02-26T01:00:21;0.80;99.90
17423;DHT22;8829;47.932;7.810;2023-02-26T01:02:50;0.90;99.90
17423;DHT22;8829;47.932;7.810;2023-02-26T01:05:18;0.90;99.90
17423;DHT22;8829;47.932;7.810;2023-02-26T01:07:51;0.90;99.90
17423;DHT22;8829;47.932;7.810;2023-02-26T01:10:20;0.90;99.90
17423;DHT22;8829;47.932;7.810;2023-02-26T01:12:47;0.90;99.90
17423;DHT22;8829;47.932;7.810;2023-02-26T01:15:15;0.90;99.90
17423;DHT22;8829;47.932;7.810;2023-02-26T01:17:48;0.80;99.90
17423;DHT22;8829;47.932;7.810;2023-02-26T01:20:19;0.70;99.90
17423;DHT22;8829;47.932;7.810;2023-02-26T01:22:51;0.70;99.90
17423;DHT22;8829;47.932;7.810;2023-02-26T01:25:24;0.70;99.90
17423;DHT22;8829;47.932;7.810;2023-02-26T01:27:51;0.50;99.90
17423;DHT22;8829;47.932;7.810;2023-02-26T01:30:19;0.40;99.90
17423;DHT22;8829;47.932;7.810;2023-02-26T01:32:50;0.40;99.90
17423;DHT22;8829;47.932;7.810;2023-02-26T01:35:31;0.40;99.90
17423;DHT22;8829;47.932;7.810;2023-02-26T01:38:03;0.40;99.90
17423;DHT22;8829;47.932;7.810;2023-02-26T01:41:01;0.30;99.90
17423;DHT22;8829;47.932;7.810;2023-02-26T01:43:34;0.20;99.90
17423;DHT22;8829;47.932;7.810;2023-02-26T01:46:06;-0.10;99.90
17423;DHT22;8829;47.932;7.810;2023-02-26T01:48:49;-0.20;99.90
17423;DHT22;8829;47.932;7.810;2023-02-26T01:51:17;-0.30;99.90
17423;DHT22;8829;47.932;7.810;2023-02-26T01:53:44;-0.40;99.90
17423;DHT22;8829;47.932;7.810;2023-02-26T01:56:15;-0.40;99.90
17423;DHT22;8829;47.932;7.810;2023-02-26T01:58:43;-0.50;99.90
17423;DHT22;8829;47.932;7.810;2023-02-26T02:01:10;-0.60;99.90
17423;DHT22;8829;47.932;7.810;2023-02-26T02:03:38;-0.60;99.90
17423;DHT22;8829;47.932;7.810;2023-02-26T02:06:07;-0.60;99.90
17423;DHT22;8829;47.932;7.810;2023-02-26T02:08:36;-0.70;99.90
17423;DHT22;8829;47.932;7.810;2023-02-26T02:11:06;-0.80;99.90
17423;DHT22;8829;47.932;7.810;2023-02-26T02:13:45;-0.90;99.90
17423;DHT22;8829;47.932;7.810;2023-02-26T02:16:21;-1.00;99.90
17423;DHT22;8829;47.932;7.810;2023-02-26T02:18:54;-0.90;99.90
17423;DHT22;8829;47.932;7.810;2023-02-26T02:21:57;-0.90;99.90
17423;DHT22;8829;47.932;7.810;2023-02-26T02:24:37;-0.90;99.90
17423;DHT22;8829;47.932;7.810;2023-02-26T02:27:13;-1.00;99.90
17423;DHT22;8829;47.932;7.810;2023-02-26T02:30:02;-1.00;99.90
17423;DHT22;8829;47.932;7.810;2023-02-26T02:32:35;-0.90;99.90
17423;DHT22;8829;47.932;7.810;2023-02-26T02:35:10;-1.00;99.90
17423;DHT22;8829;47.932;7.810;2023-02-26T02:37:43;-1.00;99.90
17423;DHT22;8829;47.932;7.810;2023-02-26T02:40:15;-1.00;99.90
17423;DHT22;8829;47.932;7.810;2023-02-26T02:42:46;-1.10;99.90
17423;DHT22;8829;47.932;7.810;2023-02-26T02:45:18;-1.00;99.90
17423;DHT22;8829;47.932;7.810;2023-02-26T02:47:52;-1.00;99.90
17423;DHT22;8829;47.932;7.810;2023-02-26T02:50:26;-1.10;99.90
17423;DHT22;8829;47.932;7.810;2023-02-26T02:52:57;-1.20;99.90
17423;DHT22;8829;47.932;7.810;2023-02-26T02:55:29;-1.20;99.90
17423;DHT22;8829;47.932;7.810;2023-02-26T02:57:59;-1.20;99.90
17423;DHT22;8829;47.932;7.810;2023-02-26T03:00:29;-1.30;99.90
17423;DHT22;8829;47.932;7.810;2023-02-26T03:03:03;-1.20;99.90
17423;DHT22;8829;47.932;7.810;2023-02-26T03:05:32;-1.20;99.90
17423;DHT22;8829;47.932;7.810;2023-02-26T03:08:04;-1.30;99.90
17423;DHT22;8829;47.932;7.810;2023-02-26T03:10:32;-1.30;99.90
17423;DHT22;8829;47.932;7.810;2023-02-26T03:13:00;-1.30;99.90
17423;DHT22;8829;47.932;7.810;2023-02-26T03:15:38;-1.30;99.90
17423;DHT22;8829;47.932;7.810;2023-02-26T03:18:17;-1.30;99.90
17423;DHT22;8829;47.932;7.810;2023-02-26T03:20:53;-1.30;99.90
17423;DHT22;8829;47.932;7.810;2023-02-26T03:23:23;-1.30;99.90
17423;DHT22;8829;47.932;7.810;2023-02-26T03:25:55;-1.30;99.90
17423;DHT22;8829;47.932;7.810;2023-02-26T03:28:28;-1.30;99.90
17423;DHT22;8829;47.932;7.810;2023-02-26T03:31:00;-1.20;99.90
17423;DHT22;8829;47.932;7.810;2023-02-26T03:33:34;-1.30;99.90
17423;DHT22;8829;47.932;7.810;2023-02-26T03:36:07;-1.20;99.90
17423;DHT22;8829;47.932;7.810;2023-02-26T03:38:39;-1.10;99.90
17423;DHT22;8829;47.932;7.810;2023-02-26T03:41:10;-1.20;99.90
17423;DHT22;8829;47.932;7.810;2023-02-26T03:43:43;-1.10;99.90
17423;DHT22;8829;47.932;7.810;2023-02-26T03:46:15;-1.20;99.90
17423;DHT22;8829;47.932;7.810;2023-02-26T03:48:47;-1.20;99.90
17423;DHT22;8829;47.932;7.810;2023-02-26T03:53:49;-1.20;99.90
17423;DHT22;8829;47.932;7.810;2023-02-26T03:56:20;-1.10;99.90
17423;DHT22;8829;47.932;7.810;2023-02-26T03:58:49;-1.20;99.90
17423;DHT22;8829;47.932;7.810;2023-02-26T04:01:19;-1.10;99.90
17423;DHT22;8829;47.932;7.810;2023-02-26T04:03:51;-1.20;99.90
17423;DHT22;8829;47.932;7.810;2023-02-26T04:06:19;-1.20;99.90
17423;DHT22;8829;47.932;7.810;2023-02-26T04:08:46;-1.30;99.90
17423;DHT22;8829;47.932;7.810;2023-02-26T04:11:14;-1.30;99.90
17423;DHT22;8829;47.932;7.810;2023-02-26T04:13:43;-1.30;99.90
17423;DHT22;8829;47.932;7.810;2023-02-26T04:16:09;-1.30;99.90
17423;DHT22;8829;47.932;7.810;2023-02-26T04:18:36;-1.30;99.90
17423;DHT22;8829;47.932;7.810;2023-02-26T04:21:05;-1.30;99.90
17423;DHT22;8829;47.932;7.810;2023-02-26T04:23:32;-1.40;99.90
17423;DHT22;8829;47.932;7.810;2023-02-26T04:25:58;-1.40;99.90
17423;DHT22;8829;47.932;7.810;2023-02-26T04:28:25;-1.50;99.90
17423;DHT22;8829;47.932;7.810;2023-02-26T04:30:52;-1.40;99.90
17423;DHT22;8829;47.932;7.810;2023-02-26T04:33:18;-1.50;99.90
17423;DHT22;8829;47.932;7.810;2023-02-26T04:35:45;-1.50;99.90
17423;DHT22;8829;47.932;7.810;2023-02-26T04:38:13;-1.50;99.90
17423;DHT22;8829;47.932;7.810;2023-02-26T04:40:40;-1.50;99.90
17423;DHT22;8829;47.932;7.810;2023-02-26T04:43:06;-1.40;99.90
17423;DHT22;8829;47.932;7.810;2023-02-26T04:45:33;-1.40;99.90
17423;DHT22;8829;47.932;7.810;2023-02-26T04:48:00;-1.30;99.90
17423;DHT22;8829;47.932;7.810;2023-02-26T04:50:26;-1.40;99.90
17423;DHT22;8829;47.932;7.810;2023-02-26T04:52:53;-1.40;99.90
17423;DHT22;8829;47.932;7.810;2023-02-26T04:55:21;-1.50;99.90
17423;DHT22;8829;47.932;7.810;2023-02-26T04:57:48;-1.60;99.90
17423;DHT22;8829;47.932;7.810;2023-02-26T05:00:15;-1.50;99.90
17423;DHT22;8829;47.932;7.810;2023-02-26T05:02:42;-1.60;99.90
17423;DHT22;8829;47.932;7.810;2023-02-26T05:05:09;-1.60;99.90
17423;DHT22;8829;47.932;7.810;2023-02-26T05:07:36;-1.70;99.90
17423;DHT22;8829;47.932;7.810;2023-02-26T05:10:03;-1.60;99.90
17423;DHT22;8829;47.932;7.810;2023-02-26T05:12:32;-1.70;99.90
17423;DHT22;8829;47.932;7.810;2023-02-26T05:14:58;-1.80;99.90
17423;DHT22;8829;47.932;7.810;2023-02-26T05:17:25;-1.70;99.90
17423;DHT22;8829;47.932;7.810;2023-02-26T05:19:52;-1.70;99.90
17423;DHT22;8829;47.932;7.810;2023-02-26T05:22:18;-1.70;99.90
17423;DHT22;8829;47.932;7.810;2023-02-26T05:24:45;-1.60;99.90
17423;DHT22;8829;47.932;7.810;2023-02-26T05:27:12;-1.60;99.90
17423;DHT22;8829;47.932;7.810;2023-02-26T05:29:40;-1.50;99.90
17423;DHT22;8829;47.932;7.810;2023-02-26T05:32:09;-1.40;99.90
17423;DHT22;8829;47.932;7.810;2023-02-26T05:34:37;-1.30;99.90
17423;DHT22;8829;47.932;7.810;2023-02-26T05:37:04;-1.30;99.90
17423;DHT22;8829;47.932;7.810;2023-02-26T05:39:30;-1.20;99.90
17423;DHT22;8829;47.932;7.810;2023-02-26T05:41:57;-1.10;99.90
17423;DHT22;8829;47.932;7.810;2023-02-26T05:44:24;-1.10;99.90
17423;DHT22;8829;47.932;7.810;2023-02-26T05:46:52;-1.10;99.90
17423;DHT22;8829;47.932;7.810;2023-02-26T05:49:19;-1.20;99.90
17423;DHT22;8829;47.932;7.810;2023-02-26T05:51:46;-1.20;99.90
17423;DHT22;8829;47.932;7.810;2023-02-26T05:54:13;-1.20;99.90
17423;DHT22;8829;47.932;7.810;2023-02-26T05:56:39;-1.20;99.90
17423;DHT22;8829;47.932;7.810;2023-02-26T05:59:06;-1.20;99.90
17423;DHT22;8829;47.932;7.810;2023-02-26T06:01:33;-1.20;99.90
17423;DHT22;8829;47.932;7.810;2023-02-26T06:04:03;-1.30;99.90
17423;DHT22;8829;47.932;7.810;2023-02-26T06:06:30;-1.30;99.90
17423;DHT22;8829;47.932;7.810;2023-02-26T06:08:56;-1.30;99.90
17423;DHT22;8829;47.932;7.810;2023-02-26T06:11:24;-1.30;99.90
17423;DHT22;8829;47.932;7.810;2023-02-26T06:13:51;-1.30;99.90
17423;DHT22;8829;47.932;7.810;2023-02-26T06:16:18;-1.30;99.90
17423;DHT22;8829;47.932;7.810;2023-02-26T06:18:45;-1.30;99.90
17423;DHT22;8829;47.932;7.810;2023-02-26T06:21:13;-1.30;99.90
17423;DHT22;8829;47.932;7.810;2023-02-26T06:23:39;-1.20;99.90
17423;DHT22;8829;47.932;7.810;2023-02-26T06:26:06;-1.20;99.90
17423;DHT22;8829;47.932;7.810;2023-02-26T06:28:33;-1.20;99.90
17423;DHT22;8829;47.932;7.810;2023-02-26T06:31:00;-1.20;99.90
17423;DHT22;8829;47.932;7.810;2023-02-26T06:33:27;-1.20;99.90
17423;DHT22;8829;47.932;7.810;2023-02-26T06:35:54;-1.20;99.90
17423;DHT22;8829;47.932;7.810;2023-02-26T06:38:23;-1.30;99.90
17423;DHT22;8829;47.932;7.810;2023-02-26T06:40:50;-1.30;99.90
17423;DHT22;8829;47.932;7.810;2023-02-26T06:43:17;-1.30;99.90
17423;DHT22;8829;47.932;7.810;2023-02-26T06:45:44;-1.30;99.90
17423;DHT22;8829;47.932;7.810;2023-02-26T06:48:10;-1.30;99.90
17423;DHT22;8829;47.932;7.810;2023-02-26T06:50:37;-1.30;99.90
17423;DHT22;8829;47.932;7.810;2023-02-26T06:53:04;-1.30;99.90
17423;DHT22;8829;47.932;7.810;2023-02-26T06:55:32;-1.30;99.90
17423;DHT22;8829;47.932;7.810;2023-02-26T06:57:59;-1.30;99.90
17423;DHT22;8829;47.932;7.810;2023-02-26T07:00:25;-1.30;99.90
17423;DHT22;8829;47.932;7.810;2023-02-26T07:02:52;-1.30;99.90
17423;DHT22;8829;47.932;7.810;2023-02-26T07:05:19;-1.30;99.90
17423;DHT22;8829;47.932;7.810;2023-02-26T07:07:46;-1.30;99.90
17423;DHT22;8829;47.932;7.810;2023-02-26T07:10:13;-1.20;99.90
17423;DHT22;8829;47.932;7.810;2023-02-26T07:12:41;-1.20;99.90
17423;DHT22;8829;47.932;7.810;2023-02-26T07:15:08;-1.20;99.90
17423;DHT22;8829;47.932;7.810;2023-02-26T07:17:35;-1.20;99.90
17423;DHT22;8829;47.932;7.810;2023-02-26T07:20:02;-1.20;99.90
17423;DHT22;8829;47.932;7.810;2023-02-26T07:22:35;-1.10;99.90
17423;DHT22;8829;47.932;7.810;2023-02-26T07:25:02;-1.10;99.90
17423;DHT22;8829;47.932;7.810;2023-02-26T07:27:29;-1.10;99.90
17423;DHT22;8829;47.932;7.810;2023-02-26T07:29:59;-1.10;99.90
17423;DHT22;8829;47.932;7.810;2023-02-26T07:32:25;-0.90;99.90
17423;DHT22;8829;47.932;7.810;2023-02-26T07:34:52;-1.00;99.90
17423;DHT22;8829;47.932;7.810;2023-02-26T07:37:19;-1.10;99.90
17423;DHT22;8829;47.932;7.810;2023-02-26T07:39:45;-1.00;99.90
17423;DHT22;8829;47.932;7.810;2023-02-26T07:42:13;-1.10;99.90
17423;DHT22;8829;47.932;7.810;2023-02-26T07:44:39;-1.20;99.90
17423;DHT22;8829;47.932;7.810;2023-02-26T07:47:08;-1.20;99.90
17423;DHT22;8829;47.932;7.810;2023-02-26T07:49:35;-1.10;99.90
17423;DHT22;8829;47.932;7.810;2023-02-26T07:52:02;-1.10;99.90
17423;DHT22;8829;47.932;7.810;2023-02-26T07:54:30;-1.10;99.90
17423;DHT22;8829;47.932;7.810;2023-02-26T07:56:56;-1.10;99.90
17423;DHT22;8829;47.932;7.810;2023-02-26T07:59:23;-1.10;99.90
17423;DHT22;8829;47.932;7.810;2023-02-26T08:01:50;-1.00;99.90
17423;DHT22;8829;47.932;7.810;2023-02-26T08:04:18;-1.00;99.90
17423;DHT22;8829;47.932;7.810;2023-02-26T08:06:45;-0.90;99.90
17423;DHT22;8829;47.932;7.810;2023-02-26T08:09:11;-0.90;99.90
17423;DHT22;8829;47.932;7.810;2023-02-26T08:11:38;-0.80;99.90
17423;DHT22;8829;47.932;7.810;2023-02-26T08:14:07;-0.80;99.90
17423;DHT22;8829;47.932;7.810;2023-02-26T08:16:34;-0.80;99.90
17423;DHT22;8829;47.932;7.810;2023-02-26T08:19:01;-0.70;99.90
17423;DHT22;8829;47.932;7.810;2023-02-26T08:21:29;-0.90;99.90
17423;DHT22;8829;47.932;7.810;2023-02-26T08:23:56;-1.00;99.90
17423;DHT22;8829;47.932;7.810;2023-02-26T08:26:23;-1.20;99.90
17423;DHT22;8829;47.932;7.810;2023-02-26T08:28:50;-1.30;99.90
17423;DHT22;8829;47.932;7.810;2023-02-26T08:31:16;-2.10;99.90
17423;DHT22;8829;47.932;7.810;2023-02-26T08:33:43;-1.90;99.90
17423;DHT22;8829;47.932;7.810;2023-02-26T08:36:10;-2.10;99.90
17423;DHT22;8829;47.932;7.810;2023-02-26T08:38:39;-2.10;99.90
17423;DHT22;8829;47.932;7.810;2023-02-26T08:41:05;-1.70;99.90
17423;DHT22;8829;47.932;7.810;2023-02-26T08:43:32;-1.70;99.90
17423;DHT22;8829;47.932;7.810;2023-02-26T08:45:59;-1.40;99.90
17423;DHT22;8829;47.932;7.810;2023-02-26T08:48:26;-1.10;99.90
17423;DHT22;8829;47.932;7.810;2023-02-26T08:50:53;-0.90;99.90
17423;DHT22;8829;47.932;7.810;2023-02-26T08:53:19;-1.00;99.90
17423;DHT22;8829;47.932;7.810;2023-02-26T08:55:48;-1.00;99.90
17423;DHT22;8829;47.932;7.810;2023-02-26T08:58:15;-0.80;99.90
17423;DHT22;8829;47.932;7.810;2023-02-26T09:00:42;-0.80;99.90
17423;DHT22;8829;47.932;7.810;2023-02-26T09:03:09;-0.80;99.90
17423;DHT22;8829;47.932;7.810;2023-02-26T09:05:36;-0.80;99.90
17423;DHT22;8829;47.932;7.810;2023-02-26T09:08:03;-0.60;99.90
17423;DHT22;8829;47.932;7.810;2023-02-26T09:10:30;-0.60;99.90
17423;DHT22;8829;47.932;7.810;2023-02-26T09:12:58;-0.30;99.90
17423;DHT22;8829;47.932;7.810;2023-02-26T09:15:25;-0.20;99.90
17423;DHT22;8829;47.932;7.810;2023-02-26T09:17:51;-0.40;99.90
17423;DHT22;8829;47.932;7.810;2023-02-26T09:20:18;-0.40;99.90
17423;DHT22;8829;47.932;7.810;2023-02-26T09:22:45;-0.40;99.90
17423;DHT22;8829;47.932;7.810;2023-02-26T09:25:12;-0.40;99.90
17423;DHT22;8829;47.932;7.810;2023-02-26T09:27:39;-0.40;99.90
17423;DHT22;8829;47.932;7.810;2023-02-26T09:30:09;-0.50;99.90
17423;DHT22;8829;47.932;7.810;2023-02-26T09:32:36;-0.50;99.90
17423;DHT22;8829;47.932;7.810;2023-02-26T09:35:03;-0.20;99.90
17423;DHT22;8829;47.932;7.810;2023-02-26T09:37:30;0.30;99.90
17423;DHT22;8829;47.932;7.810;2023-02-26T09:39:57;0.60;99.90
17423;DHT22;8829;47.932;7.810;2023-02-26T09:42:34;0.50;99.90
17423;DHT22;8829;47.932;7.810;2023-02-26T09:45:07;0.30;99.90
17423;DHT22;8829;47.932;7.810;2023-02-26T09:47:41;0.10;99.90
17423;DHT22;8829;47.932;7.810;2023-02-26T09:50:16;0.10;99.90
17423;DHT22;8829;47.932;7.810;2023-02-26T09:52:48;0.10;99.90
17423;DHT22;8829;47.932;7.810;2023-02-26T09:55:21;0.30;99.90
17423;DHT22;8829;47.932;7.810;2023-02-26T09:57:53;0.30;99.90
17423;DHT22;8829;47.932;7.810;2023-02-26T10:00:29;0.30;99.90
17423;DHT22;8829;47.932;7.810;2023-02-26T10:03:04;0.30;99.90
17423;DHT22;8829;47.932;7.810;2023-02-26T10:05:40;0.20;99.90
17423;DHT22;8829;47.932;7.810;2023-02-26T10:08:14;0.10;99.90
17423;DHT22;8829;47.932;7.810;2023-02-26T10:10:48;0.00;99.90
17423;DHT22;8829;47.932;7.810;2023-02-26T10:13:22;0.00;99.90
17423;DHT22;8829;47.932;7.810;2023-02-26T10:15:56;-0.10;99.90
17423;DHT22;8829;47.932;7.810;2023-02-26T10:18:30;-0.10;99.90
17423;DHT22;8829;47.932;7.810;2023-02-26T10:21:01;-0.20;99.90
17423;DHT22;8829;47.932;7.810;2023-02-26T10:23:37;-0.20;99.90
17423;DHT22;8829;47.932;7.810;2023-02-26T10:26:22;-0.30;99.90
17423;DHT22;8829;47.932;7.810;2023-02-26T10:28:58;-0.30;99.90
17423;DHT22;8829;47.932;7.810;2023-02-26T10:31:33;-0.10;99.90
17423;DHT22;8829;47.932;7.810;2023-02-26T10:34:17;-0.10;99.90
17423;DHT22;8829;47.932;7.810;2023-02-26T10:36:52;0.00;99.90
17423;DHT22;8829;47.932;7.810;2023-02-26T10:39:28;0.10;99.90
17423;DHT22;8829;47.932;7.810;2023-02-26T10:42:00;0.40;99.90
17423;DHT22;8829;47.932;7.810;2023-02-26T10:44:38;0.80;99.90
17423;DHT22;8829;47.932;7.810;2023-02-26T10:47:17;1.10;99.90
17423;DHT22;8829;47.932;7.810;2023-02-26T10:49:51;1.10;99.90
17423;DHT22;8829;47.932;7.810;2023-02-26T10:52:20;0.80;99.90
17423;DHT22;8829;47.932;7.810;2023-02-26T10:54:59;0.40;99.90
17423;DHT22;8829;47.932;7.810;2023-02-26T10:57:29;0.10;99.90
17423;DHT22;8829;47.932;7.810;2023-02-26T10:59:57;-0.30;99.90
17423;DHT22;8829;47.932;7.810;2023-02-26T11:02:36;-0.50;99.90
17423;DHT22;8829;47.932;7.810;2023-02-26T11:05:05;-0.60;99.90
17423;DHT22;8829;47.932;7.810;2023-02-26T11:07:32;-0.60;99.90
17423;DHT22;8829;47.932;7.810;2023-02-26T11:10:01;-0.50;99.90
17423;DHT22;8829;47.932;7.810;2023-02-26T11:12:29;-0.40;99.90
17423;DHT22;8829;47.932;7.810;2023-02-26T11:14:59;-0.20;99.90
17423;DHT22;8829;47.932;7.810;2023-02-26T11:17:28;-0.20;99.90
17423;DHT22;8829;47.932;7.810;2023-02-26T11:20:01;0.00;99.90
17423;DHT22;8829;47.932;7.810;2023-02-26T11:22:32;0.20;99.90
17423;DHT22;8829;47.932;7.810;2023-02-26T11:25:02;0.20;99.90
17423;DHT22;8829;47.932;7.810;2023-02-26T11:27:31;0.20;99.90
17423;DHT22;8829;47.932;7.810;2023-02-26T11:30:04;0.40;99.90
17423;DHT22;8829;47.932;7.810;2023-02-26T11:32:34;0.60;99.90
17423;DHT22;8829;47.932;7.810;2023-02-26T11:35:02;0.80;99.90
17423;DHT22;8829;47.932;7.810;2023-02-26T11:37:34;1.10;99.90
17423;DHT22;8829;47.932;7.810;2023-02-26T11:40:05;1.00;99.90
17423;DHT22;8829;47.932;7.810;2023-02-26T11:42:41;0.80;99.90
17423;DHT22;8829;47.932;7.810;2023-02-26T11:45:13;0.90;99.90
17423;DHT22;8829;47.932;7.810;2023-02-26T11:47:42;1.10;99.90
17423;DHT22;8829;47.932;7.810;2023-02-26T11:50:13;1.10;99.90
17423;DHT22;8829;47.932;7.810;2023-02-26T11:52:42;1.00;99.90
17423;DHT22;8829;47.932;7.810;2023-02-26T11:55:17;0.80;99.90
17423;DHT22;8829;47.932;7.810;2023-02-26T11:57:44;0.80;99.90
17423;DHT22;8829;47.932;7.810;2023-02-26T12:00:18;1.00;99.90
17423;DHT22;8829;47.932;7.810;2023-02-26T12:02:45;0.90;99.90
17423;DHT22;8829;47.932;7.810;2023-02-26T12:05:16;1.00;99.90
17423;DHT22;8829;47.932;7.810;2023-02-26T12:07:43;1.00;99.90
17423;DHT22;8829;47.932;7.810;2023-02-26T12:10:16;1.20;99.90
17423;DHT22;8829;47.932;7.810;2023-02-26T12:12:51;1.20;99.90
17423;DHT22;8829;47.932;7.810;2023-02-26T12:15:27;1.20;99.90
17423;DHT22;8829;47.932;7.810;2023-02-26T12:18:19;1.10;99.90
17423;DHT22;8829;47.932;7.810;2023-02-26T12:21:02;1.00;99.90
17423;DHT22;8829;47.932;7.810;2023-02-26T12:26:33;1.10;99.90
17423;DHT22;8829;47.932;7.810;2023-02-26T12:29:31;0.80;99.90
17423;DHT22;8829;47.932;7.810;2023-02-26T12:32:18;0.80;99.90
17423;DHT22;8829;47.932;7.810;2023-02-26T12:35:13;0.90;99.90
17423;DHT22;8829;47.932;7.810;2023-02-26T12:37:52;0.80;99.90
17423;DHT22;8829;47.932;7.810;2023-02-26T12:40:35;0.90;99.90
17423;DHT22;8829;47.932;7.810;2023-02-26T12:43:10;0.80;99.90
17423;DHT22;8829;47.932;7.810;2023-02-26T12:45:44;0.90;99.90
17423;DHT22;8829;47.932;7.810;2023-02-26T12:48:30;0.80;99.90
17423;DHT22;8829;47.932;7.810;2023-02-26T12:51:06;0.80;99.90
17423;DHT22;8829;47.932;7.810;2023-02-26T12:53:48;0.80;99.90
17423;DHT22;8829;47.932;7.810;2023-02-26T12:56:32;0.80;99.90
17423;DHT22;8829;47.932;7.810;2023-02-26T12:59:12;0.90;99.90
17423;DHT22;8829;47.932;7.810;2023-02-26T13:02:12;0.80;99.90
17423;DHT22;8829;47.932;7.810;2023-02-26T13:05:23;0.70;99.90
17423;DHT22;8829;47.932;7.810;2023-02-26T13:07:59;0.80;99.90
17423;DHT22;8829;47.932;7.810;2023-02-26T13:10:41;0.80;99.90
17423;DHT22;8829;47.932;7.810;2023-02-26T13:13:20;0.70;99.90
17423;DHT22;8829;47.932;7.810;2023-02-26T13:15:59;0.80;99.90
17423;DHT22;8829;47.932;7.810;2023-02-26T13:18:36;0.90;99.90
17423;DHT22;8829;47.932;7.810;2023-02-26T13:21:07;1.00;99.90
17423;DHT22;8829;47.932;7.810;2023-02-26T13:23:41;1.10;99.90
17423;DHT22;8829;47.932;7.810;2023-02-26T13:26:12;1.10;99.90
17423;DHT22;8829;47.932;7.810;2023-02-26T13:28:43;1.10;99.90
17423;DHT22;8829;47.932;7.810;2023-02-26T13:31:16;1.10;99.90
17423;DHT22;8829;47.932;7.810;2023-02-26T13:33:44;1.10;99.90
17423;DHT22;8829;47.932;7.810;2023-02-26T13:36:13;1.30;99.90
17423;DHT22;8829;47.932;7.810;2023-02-26T13:38:47;1.30;99.90
17423;DHT22;8829;47.932;7.810;2023-02-26T13:41:22;1.10;99.90
17423;DHT22;8829;47.932;7.810;2023-02-26T13:44:06;1.30;99.90
17423;DHT22;8829;47.932;7.810;2023-02-26T13:46:55;1.30;99.90
17423;DHT22;8829;47.932;7.810;2023-02-26T13:49:30;1.30;99.90
17423;DHT22;8829;47.932;7.810;2023-02-26T13:52:00;1.30;99.90
17423;DHT22;8829;47.932;7.810;2023-02-26T13:54:41;1.40;99.90
17423;DHT22;8829;47.932;7.810;2023-02-26T13:57:32;1.40;99.90
17423;DHT22;8829;47.932;7.810;2023-02-26T14:00:03;1.30;99.90
17423;DHT22;8829;47.932;7.810;2023-02-26T14:02:45;1.40;99.90
17423;DHT22;8829;47.932;7.810;2023-02-26T14:05:32;1.30;99.90
17423;DHT22;8829;47.932;7.810;2023-02-26T14:08:20;1.20;99.90
17423;DHT22;8829;47.932;7.810;2023-02-26T14:10:55;1.20;99.90
17423;DHT22;8829;47.932;7.810;2023-02-26T14:13:31;1.20;99.90
17423;DHT22;8829;47.932;7.810;2023-02-26T14:16:00;1.30;99.90
17423;DHT22;8829;47.932;7.810;2023-02-26T14:18:30;1.30;99.90
17423;DHT22;8829;47.932;7.810;2023-02-26T14:24:16;1.30;99.90
17423;DHT22;8829;47.932;7.810;2023-02-26T14:26:45;1.20;99.90
17423;DHT22;8829;47.932;7.810;2023-02-26T14:29:20;1.20;99.90
17423;DHT22;8829;47.932;7.810;2023-02-26T14:31:54;1.10;99.90
17423;DHT22;8829;47.932;7.810;2023-02-26T14:34:22;1.10;99.90
17423;DHT22;8829;47.932;7.810;2023-02-26T14:36:52;1.20;99.90
17423;DHT22;8829;47.932;7.810;2023-02-26T14:39:27;1.30;99.90
17423;DHT22;8829;47.932;7.810;2023-02-26T14:41:58;1.00;99.90
17423;DHT22;8829;47.932;7.810;2023-02-26T14:44:29;0.80;99.90
17423;DHT22;8829;47.932;7.810;2023-02-26T14:46:57;0.50;99.90
17423;DHT22;8829;47.932;7.810;2023-02-26T14:49:29;0.20;99.90
17423;DHT22;8829;47.932;7.810;2023-02-26T14:52:08;0.10;99.90
17423;DHT22;8829;47.932;7.810;2023-02-26T14:54:46;0.20;99.90
17423;DHT22;8829;47.932;7.810;2023-02-26T14:57:22;0.20;99.90
17423;DHT22;8829;47.932;7.810;2023-02-26T15:00:02;0.30;99.90
17423;DHT22;8829;47.932;7.810;2023-02-26T15:02:47;0.20;99.90
17423;DHT22;8829;47.932;7.810;2023-02-26T15:08:29;0.10;99.90
17423;DHT22;8829;47.932;7.810;2023-02-26T15:11:20;0.10;99.90
17423;DHT22;8829;47.932;7.810;2023-02-26T15:14:02;0.20;99.90
17423;DHT22;8829;47.932;7.810;2023-02-26T15:16:41;0.10;99.90
17423;DHT22;8829;47.932;7.810;2023-02-26T15:19:21;0.20;99.90
17423;DHT22;8829;47.932;7.810;2023-02-26T15:22:01;0.40;99.90
17423;DHT22;8829;47.932;7.810;2023-02-26T15:24:29;0.40;99.90
17423;DHT22;8829;47.932;7.810;2023-02-26T15:27:00;0.50;99.90
17423;DHT22;8829;47.932;7.810;2023-02-26T15:29:30;0.50;99.90
17423;DHT22;8829;47.932;7.810;2023-02-26T15:32:04;0.50;99.90
17423;DHT22;8829;47.932;7.810;2023-02-26T15:34:31;0.50;99.90
17423;DHT22;8829;47.932;7.810;2023-02-26T15:36:59;0.60;99.90
17423;DHT22;8829;47.932;7.810;2023-02-26T15:39:27;0.60;99.90
17423;DHT22;8829;47.932;7.810;2023-02-26T15:41:55;0.70;99.90
17423;DHT22;8829;47.932;7.810;2023-02-26T15:44:24;0.70;99.90
17423;DHT22;8829;47.932;7.810;2023-02-26T15:46:54;0.80;99.90
17423;DHT22;8829;47.932;7.810;2023-02-26T15:49:25;0.80;99.90
17423;DHT22;8829;47.932;7.810;2023-02-26T15:51:54;0.20;99.90
17423;DHT22;8829;47.932;7.810;2023-02-26T15:54:22;-0.30;99.90
17423;DHT22;8829;47.932;7.810;2023-02-26T15:56:50;-0.30;99.90
17423;DHT22;8829;47.932;7.810;2023-02-26T15:59:18;-0.40;99.90
17423;DHT22;8829;47.932;7.810;2023-02-26T16:01:47;-0.30;99.90
17423;DHT22;8829;47.932;7.810;2023-02-26T16:04:16;-0.10;99.90
17423;DHT22;8829;47.932;7.810;2023-02-26T16:06:46;0.00;99.90
17423;DHT22;8829;47.932;7.810;2023-02-26T16:09:16;0.00;99.90
17423;DHT22;8829;47.932;7.810;2023-02-26T16:11:44;0.00;99.90
17423;DHT22;8829;47.932;7.810;2023-02-26T16:14:16;-0.20;99.90
17423;DHT22;8829;47.932;7.810;2023-02-26T16:16:47;-0.30;99.90
17423;DHT22;8829;47.932;7.810;2023-02-26T16:19:14;-0.30;99.90
17423;DHT22;8829;47.932;7.810;2023-02-26T16:21:42;-0.20;99.90
17423;DHT22;8829;47.932;7.810;2023-02-26T16:24:14;-0.20;99.90
17423;DHT22;8829;47.932;7.810;2023-02-26T16:26:43;-0.40;99.90
17423;DHT22;8829;47.932;7.810;2023-02-26T16:29:15;-0.40;99.90